createdAt,value
2018-07-07T00:00:07.229Z,0
2018-07-07T00:01:17.421Z,0
2018-07-07T00:02:27.605Z,0
2018-07-07T00:03:37.859Z,0
2018-07-07T00:04:48.166Z,0
2018-07-07T00:05:58.375Z,0
2018-07-07T00:07:08.644Z,0
2018-07-07T00:08:18.806Z,0
2018-07-07T00:09:28.958Z,0
2018-07-07T00:10:39.090Z,0
2018-07-07T00:11:49.293Z,0
2018-07-07T00:12:59.650Z,0
2018-07-07T00:14:09.539Z,0
2018-07-07T00:15:19.667Z,0
2018-07-07T00:16:29.798Z,0
2018-07-07T00:17:39.694Z,0
2018-07-07T00:18:49.832Z,0
2018-07-07T00:20:00.012Z,0
2018-07-07T00:21:10.287Z,0
2018-07-07T00:22:20.554Z,0
2018-07-07T00:23:30.718Z,0
2018-07-07T00:24:40.900Z,0
2018-07-07T00:25:51.181Z,0
2018-07-07T00:27:01.318Z,0
2018-07-07T00:28:11.684Z,0
2018-07-07T00:29:21.809Z,0
2018-07-07T00:30:32.053Z,0
2018-07-07T00:31:42.256Z,0
2018-07-07T00:32:52.550Z,0
2018-07-07T00:34:02.702Z,0
2018-07-07T00:35:12.906Z,0
2018-07-07T00:36:22.806Z,0
2018-07-07T00:37:32.930Z,0
2018-07-07T00:38:43.182Z,0
2018-07-07T00:39:53.309Z,0
2018-07-07T00:41:03.460Z,0
2018-07-07T00:42:13.647Z,0
2018-07-07T00:43:23.587Z,0
2018-07-07T00:44:33.722Z,0
2018-07-07T00:45:44.162Z,0
2018-07-07T00:46:54.310Z,0
2018-07-07T00:48:04.616Z,0
2018-07-07T00:49:14.740Z,0
2018-07-07T00:50:24.630Z,0
2018-07-07T00:51:34.443Z,0
2018-07-07T00:52:45.668Z,0
2018-07-07T00:53:55.624Z,0
2018-07-07T00:55:05.426Z,0
2018-07-07T00:56:15.559Z,0
2018-07-07T00:57:25.685Z,0
2018-07-07T00:58:35.829Z,0
2018-07-07T00:59:45.995Z,0
2018-07-07T01:00:56.142Z,0
2018-07-07T01:02:06.015Z,0
2018-07-07T01:03:16.285Z,0
2018-07-07T01:04:26.685Z,0
2018-07-07T01:05:36.857Z,0
2018-07-07T01:06:47.014Z,0
2018-07-07T01:07:56.770Z,0
2018-07-07T01:09:07.076Z,0
2018-07-07T01:10:17.222Z,0
2018-07-07T01:11:27.337Z,0
2018-07-07T01:12:37.476Z,0
2018-07-07T01:13:47.776Z,0
2018-07-07T01:14:57.918Z,0
2018-07-07T01:16:08.136Z,0
2018-07-07T01:17:18.276Z,0
2018-07-07T01:18:28.420Z,0
2018-07-07T01:19:38.552Z,0
2018-07-07T01:20:48.743Z,0
2018-07-07T01:21:58.920Z,0
2018-07-07T01:23:09.070Z,0
2018-07-07T01:24:19.332Z,0
2018-07-07T01:25:29.476Z,0
2018-07-07T01:26:39.716Z,0
2018-07-07T01:27:49.941Z,0
2018-07-07T01:29:00.229Z,0
2018-07-07T01:30:10.509Z,0
2018-07-07T01:31:20.667Z,0
2018-07-07T01:32:30.829Z,0
2018-07-07T01:33:40.744Z,0
2018-07-07T01:34:50.764Z,0
2018-07-07T01:36:00.979Z,0
2018-07-07T01:37:10.863Z,0
2018-07-07T01:38:20.999Z,0
2018-07-07T01:39:31.224Z,0
2018-07-07T01:40:41.374Z,0
2018-07-07T01:41:51.629Z,0
2018-07-07T01:43:01.783Z,0
2018-07-07T01:44:11.415Z,0
2018-07-07T01:45:21.541Z,0
2018-07-07T01:46:31.667Z,0
2018-07-07T01:47:41.808Z,0
2018-07-07T01:48:52.258Z,0
2018-07-07T01:50:02.383Z,0
2018-07-07T01:51:12.571Z,0
2018-07-07T01:52:22.765Z,0
2018-07-07T01:53:32.952Z,0
2018-07-07T01:54:43.072Z,0
2018-07-07T01:55:53.396Z,0
2018-07-07T01:57:03.735Z,0
2018-07-07T01:58:13.494Z,0
2018-07-07T01:59:23.607Z,0
2018-07-07T02:00:33.779Z,0
2018-07-07T02:01:44.024Z,0
2018-07-07T02:02:54.168Z,0
2018-07-07T02:04:04.344Z,0
2018-07-07T02:05:14.571Z,0
2018-07-07T02:06:24.706Z,0
2018-07-07T02:07:34.810Z,0
2018-07-07T02:08:44.974Z,0
2018-07-07T02:09:55.190Z,0
2018-07-07T02:11:05.370Z,0
2018-07-07T02:12:15.232Z,0
2018-07-07T02:13:25.504Z,0
2018-07-07T02:14:35.358Z,0
2018-07-07T02:15:45.538Z,0
2018-07-07T02:16:56.354Z,0
2018-07-07T02:18:06.476Z,0
2018-07-07T02:19:16.477Z,0
2018-07-07T02:20:26.634Z,0
2018-07-07T02:21:36.754Z,0
2018-07-07T02:22:46.985Z,0
2018-07-07T02:23:57.143Z,0
2018-07-07T02:25:07.306Z,0
2018-07-07T02:26:17.506Z,0
2018-07-07T02:27:27.785Z,0
2018-07-07T02:28:37.611Z,0
2018-07-07T02:29:47.774Z,0
2018-07-07T02:30:57.687Z,0
2018-07-07T02:32:07.808Z,0
2018-07-07T02:33:17.937Z,0
2018-07-07T02:34:28.099Z,0
2018-07-07T02:35:38.228Z,0
2018-07-07T02:36:48.161Z,0
2018-07-07T02:37:59.366Z,0
2018-07-07T02:39:09.165Z,0
2018-07-07T02:40:18.826Z,0
2018-07-07T02:41:28.649Z,0
2018-07-07T02:42:38.467Z,0
2018-07-07T02:43:48.616Z,0
2018-07-07T02:44:58.843Z,0
2018-07-07T02:46:09.146Z,0
2018-07-07T02:47:18.945Z,0
2018-07-07T02:48:29.066Z,0
2018-07-07T02:49:39.260Z,0
2018-07-07T02:50:49.463Z,0
2018-07-07T02:51:59.589Z,0
2018-07-07T02:53:09.519Z,0
2018-07-07T02:54:19.020Z,0
2018-07-07T02:55:29.155Z,0
2018-07-07T02:56:39.278Z,0
2018-07-07T02:57:49.455Z,0
2018-07-07T02:58:59.572Z,5
2018-07-07T03:00:09.770Z,5
2018-07-07T03:01:19.676Z,5
2018-07-07T03:02:29.789Z,5
2018-07-07T03:03:39.906Z,5
2018-07-07T03:04:50.047Z,5
2018-07-07T03:06:00.242Z,5
2018-07-07T03:07:10.442Z,5
2018-07-07T03:08:20.583Z,5
2018-07-07T03:09:30.713Z,5
2018-07-07T03:10:40.845Z,10
2018-07-07T03:11:50.989Z,10
2018-07-07T03:13:01.163Z,10
2018-07-07T03:14:11.042Z,10
2018-07-07T03:15:20.920Z,10
2018-07-07T03:16:31.060Z,10
2018-07-07T03:17:41.446Z,10
2018-07-07T03:18:51.653Z,15
2018-07-07T03:20:01.975Z,15
2018-07-07T03:21:12.203Z,15
2018-07-07T03:22:22.379Z,15
2018-07-07T03:23:32.554Z,15
2018-07-07T03:24:42.683Z,20
2018-07-07T03:25:52.805Z,20
2018-07-07T03:27:02.956Z,20
2018-07-07T03:28:13.096Z,20
2018-07-07T03:29:23.304Z,20
2018-07-07T03:30:32.921Z,20
2018-07-07T03:31:43.053Z,25
2018-07-07T03:32:53.191Z,25
2018-07-07T03:34:04.307Z,25
2018-07-07T03:35:14.430Z,25
2018-07-07T03:36:24.618Z,25
2018-07-07T03:37:34.827Z,25
2018-07-07T03:38:45.311Z,30
2018-07-07T03:39:55.421Z,30
2018-07-07T03:41:05.589Z,30
2018-07-07T03:42:15.984Z,30
2018-07-07T03:43:26.130Z,35
2018-07-07T03:44:36.253Z,35
2018-07-07T03:45:46.410Z,35
2018-07-07T03:46:56.681Z,35
2018-07-07T03:48:07.025Z,40
2018-07-07T03:49:17.292Z,40
2018-07-07T03:50:27.432Z,40
2018-07-07T03:51:37.526Z,45
2018-07-07T03:52:47.730Z,45
2018-07-07T03:53:57.865Z,45
2018-07-07T03:55:08.146Z,50
2018-07-07T03:56:18.370Z,50
2018-07-07T03:57:28.585Z,45
2018-07-07T03:58:38.679Z,45
2018-07-07T03:59:49.053Z,50
2018-07-07T04:00:59.372Z,50
2018-07-07T04:02:09.503Z,55
2018-07-07T04:03:19.749Z,55
2018-07-07T04:04:29.881Z,55
2018-07-07T04:05:40.147Z,55
2018-07-07T04:06:50.375Z,60
2018-07-07T04:08:00.539Z,60
2018-07-07T04:09:10.689Z,60
2018-07-07T04:10:20.815Z,60
2018-07-07T04:11:30.964Z,60
2018-07-07T04:12:41.223Z,60
2018-07-07T04:13:50.987Z,60
2018-07-07T04:15:01.135Z,60
2018-07-07T04:16:11.266Z,60
2018-07-07T04:17:21.444Z,70
2018-07-07T04:18:31.671Z,65
2018-07-07T04:19:41.436Z,65
2018-07-07T04:20:51.582Z,70
2018-07-07T04:22:01.544Z,70
2018-07-07T04:23:11.705Z,75
2018-07-07T04:24:21.627Z,75
2018-07-07T04:25:31.745Z,80
2018-07-07T04:26:42.126Z,85
2018-07-07T04:27:52.285Z,85
2018-07-07T04:29:02.411Z,90
2018-07-07T04:30:12.182Z,90
2018-07-07T04:31:21.849Z,90
2018-07-07T04:32:31.759Z,90
2018-07-07T04:33:42.142Z,95
2018-07-07T04:34:52.332Z,90
2018-07-07T04:36:02.253Z,90
2018-07-07T04:37:12.381Z,90
2018-07-07T04:38:22.554Z,90
2018-07-07T04:39:32.706Z,95
2018-07-07T04:40:43.182Z,95
2018-07-07T04:41:53.312Z,100
2018-07-07T04:43:03.450Z,100
2018-07-07T04:44:13.610Z,105
2018-07-07T04:45:23.731Z,105
2018-07-07T04:46:33.651Z,115
2018-07-07T04:47:43.559Z,110
2018-07-07T04:48:53.710Z,115
2018-07-07T04:50:03.569Z,115
2018-07-07T04:51:13.687Z,115
2018-07-07T04:52:24.162Z,120
2018-07-07T04:53:34.070Z,125
2018-07-07T04:54:44.220Z,135
2018-07-07T04:55:53.998Z,140
2018-07-07T04:57:04.136Z,135
2018-07-07T04:58:14.325Z,145
2018-07-07T04:59:24.564Z,150
2018-07-07T05:00:34.520Z,155
2018-07-07T05:01:44.397Z,160
2018-07-07T05:02:54.688Z,165
2018-07-07T05:04:05.918Z,175
2018-07-07T05:05:16.058Z,175
2018-07-07T05:06:26.243Z,175
2018-07-07T05:07:36.465Z,180
2018-07-07T05:08:46.789Z,185
2018-07-07T05:09:56.658Z,185
2018-07-07T05:11:07.059Z,175
2018-07-07T05:12:17.245Z,185
2018-07-07T05:13:27.394Z,195
2018-07-07T05:14:37.518Z,200
2018-07-07T05:15:47.735Z,195
2018-07-07T05:16:57.926Z,200
2018-07-07T05:18:08.376Z,240
2018-07-07T05:19:18.498Z,225
2018-07-07T05:20:28.636Z,225
2018-07-07T05:21:38.989Z,215
2018-07-07T05:22:48.906Z,195
2018-07-07T05:23:59.052Z,200
2018-07-07T05:25:08.935Z,185
2018-07-07T05:26:19.061Z,185
2018-07-07T05:27:29.214Z,185
2018-07-07T05:28:39.397Z,180
2018-07-07T05:29:49.553Z,185
2018-07-07T05:30:59.667Z,185
2018-07-07T05:32:10.057Z,185
2018-07-07T05:33:20.217Z,185
2018-07-07T05:34:30.367Z,185
2018-07-07T05:35:40.587Z,180
2018-07-07T05:36:50.523Z,175
2018-07-07T05:38:00.661Z,175
2018-07-07T05:39:10.790Z,180
2018-07-07T05:40:20.927Z,180
2018-07-07T05:41:31.094Z,185
2018-07-07T05:42:40.628Z,180
2018-07-07T05:43:50.748Z,180
2018-07-07T05:45:00.875Z,180
2018-07-07T05:46:11.005Z,185
2018-07-07T05:47:21.178Z,190
2018-07-07T05:48:31.295Z,185
2018-07-07T05:49:41.415Z,200
2018-07-07T05:50:51.540Z,195
2018-07-07T05:52:01.405Z,200
2018-07-07T05:53:11.534Z,205
2018-07-07T05:54:21.410Z,210
2018-07-07T05:55:31.304Z,210
2018-07-07T05:56:41.307Z,210
2018-07-07T05:57:51.456Z,200
2018-07-07T05:59:01.586Z,200
2018-07-07T06:00:11.774Z,185
2018-07-07T06:01:21.931Z,180
2018-07-07T06:02:32.268Z,185
2018-07-07T06:03:42.427Z,165
2018-07-07T06:04:52.576Z,160
2018-07-07T06:06:02.724Z,150
2018-07-07T06:07:12.968Z,145
2018-07-07T06:08:23.181Z,150
2018-07-07T06:09:33.332Z,165
2018-07-07T06:10:43.537Z,170
2018-07-07T06:11:53.708Z,140
2018-07-07T06:13:03.858Z,155
2018-07-07T06:14:13.984Z,165
2018-07-07T06:15:24.142Z,170
2018-07-07T06:16:34.356Z,160
2018-07-07T06:17:44.550Z,155
2018-07-07T06:18:54.570Z,130
2018-07-07T06:20:04.735Z,145
2018-07-07T06:21:14.877Z,150
2018-07-07T06:22:25.094Z,165
2018-07-07T06:23:35.256Z,170
2018-07-07T06:24:45.122Z,185
2018-07-07T06:25:55.276Z,175
2018-07-07T06:27:05.518Z,175
2018-07-07T06:28:15.702Z,170
2018-07-07T06:29:25.869Z,175
2018-07-07T06:30:35.665Z,175
2018-07-07T06:31:45.570Z,175
2018-07-07T06:32:55.711Z,195
2018-07-07T06:34:05.856Z,175
2018-07-07T06:35:16.044Z,165
2018-07-07T06:36:26.196Z,160
2018-07-07T06:37:36.259Z,160
2018-07-07T06:38:46.380Z,160
2018-07-07T06:39:56.271Z,160
2018-07-07T06:41:06.453Z,160
2018-07-07T06:42:16.706Z,155
2018-07-07T06:43:26.888Z,155
2018-07-07T06:44:36.795Z,150
2018-07-07T06:45:47.041Z,150
2018-07-07T06:46:57.268Z,145
2018-07-07T06:48:06.882Z,145
2018-07-07T06:49:17.100Z,145
2018-07-07T06:50:27.253Z,145
2018-07-07T06:51:37.373Z,145
2018-07-07T06:52:47.760Z,145
2018-07-07T06:53:58.113Z,150
2018-07-07T06:55:08.430Z,155
2018-07-07T06:56:18.573Z,155
2018-07-07T06:57:28.755Z,160
2018-07-07T06:58:39.152Z,160
2018-07-07T06:59:49.593Z,165
2018-07-07T07:00:59.877Z,165
2018-07-07T07:02:10.047Z,165
2018-07-07T07:03:19.983Z,140
2018-07-07T07:04:31.098Z,155
2018-07-07T07:05:42.268Z,155
2018-07-07T07:06:52.444Z,145
2018-07-07T07:08:02.651Z,140
2018-07-07T07:09:12.527Z,140
2018-07-07T07:10:23.695Z,140
2018-07-07T07:11:33.569Z,140
2018-07-07T07:12:43.685Z,135
2018-07-07T07:13:53.598Z,135
2018-07-07T07:15:03.719Z,135
2018-07-07T07:16:13.958Z,135
2018-07-07T07:17:24.083Z,135
2018-07-07T07:18:34.259Z,135
2018-07-07T07:19:44.161Z,140
2018-07-07T07:20:54.133Z,135
2018-07-07T07:22:04.398Z,135
2018-07-07T07:23:14.581Z,135
2018-07-07T07:24:24.786Z,135
2018-07-07T07:25:35.006Z,135
2018-07-07T07:26:45.153Z,135
2018-07-07T07:27:55.366Z,135
2018-07-07T07:29:05.222Z,135
2018-07-07T07:30:16.118Z,140
2018-07-07T07:31:26.268Z,140
2018-07-07T07:32:36.144Z,140
2018-07-07T07:33:46.311Z,140
2018-07-07T07:34:56.271Z,140
2018-07-07T07:36:06.525Z,140
2018-07-07T07:37:16.776Z,140
2018-07-07T07:38:26.971Z,140
2018-07-07T07:39:37.201Z,140
2018-07-07T07:40:47.554Z,140
2018-07-07T07:41:57.828Z,145
2018-07-07T07:43:08.047Z,145
2018-07-07T07:44:18.176Z,145
2018-07-07T07:45:28.323Z,145
2018-07-07T07:46:38.233Z,150
2018-07-07T07:47:48.170Z,150
2018-07-07T07:48:58.357Z,150
2018-07-07T07:50:08.696Z,150
2018-07-07T07:51:18.852Z,150
2018-07-07T07:52:29.009Z,150
2018-07-07T07:53:39.143Z,150
2018-07-07T07:54:49.255Z,155
2018-07-07T07:55:59.477Z,155
2018-07-07T07:57:09.363Z,155
2018-07-07T07:58:19.519Z,160
2018-07-07T07:59:29.642Z,160
2018-07-07T08:00:39.802Z,160
2018-07-07T08:01:49.980Z,165
2018-07-07T08:02:59.734Z,165
2018-07-07T08:04:09.885Z,165
2018-07-07T08:05:20.176Z,165
2018-07-07T08:06:30.405Z,165
2018-07-07T08:07:40.617Z,170
2018-07-07T08:08:50.481Z,170
2018-07-07T08:10:00.599Z,170
2018-07-07T08:11:10.769Z,170
2018-07-07T08:12:20.958Z,170
2018-07-07T08:13:31.113Z,170
2018-07-07T08:14:40.969Z,170
2018-07-07T08:15:51.159Z,175
2018-07-07T08:17:01.318Z,180
2018-07-07T08:18:11.207Z,180
2018-07-07T08:19:21.337Z,180
2018-07-07T08:20:31.533Z,180
2018-07-07T08:21:41.693Z,185
2018-07-07T08:22:52.114Z,185
2018-07-07T08:24:02.261Z,185
2018-07-07T08:25:12.177Z,190
2018-07-07T08:26:22.141Z,195
2018-07-07T08:27:32.372Z,195
2018-07-07T08:28:42.591Z,200
2018-07-07T08:29:52.855Z,200
2018-07-07T08:31:03.026Z,200
2018-07-07T08:32:13.220Z,195
2018-07-07T08:33:23.125Z,195
2018-07-07T08:34:33.672Z,200
2018-07-07T08:35:44.061Z,200
2018-07-07T08:36:55.240Z,200
2018-07-07T08:38:05.416Z,200
2018-07-07T08:39:15.659Z,200
2018-07-07T08:40:25.939Z,200
2018-07-07T08:41:35.825Z,210
2018-07-07T08:42:45.967Z,220
2018-07-07T08:43:55.769Z,225
2018-07-07T08:45:05.902Z,240
2018-07-07T08:46:15.826Z,285
2018-07-07T08:47:25.984Z,920
2018-07-07T08:48:36.141Z,1645
2018-07-07T08:49:46.503Z,1775
2018-07-07T08:50:56.700Z,1795
2018-07-07T08:52:06.843Z,1825
2018-07-07T08:53:17.966Z,1805
2018-07-07T08:54:28.107Z,1770
2018-07-07T08:55:38.274Z,1770
2018-07-07T08:56:48.460Z,1790
2018-07-07T08:57:58.674Z,1690
2018-07-07T08:59:08.862Z,1445
2018-07-07T09:00:19.092Z,1310
2018-07-07T09:01:29.292Z,1420
2018-07-07T09:02:39.463Z,1635
2018-07-07T09:03:49.651Z,1640
2018-07-07T09:04:59.855Z,1965
2018-07-07T09:06:10.018Z,2130
2018-07-07T09:07:20.176Z,2205
2018-07-07T09:08:30.409Z,2280
2018-07-07T09:09:40.594Z,2375
2018-07-07T09:10:50.780Z,2385
2018-07-07T09:12:00.956Z,2260
2018-07-07T09:13:11.117Z,2175
2018-07-07T09:14:21.596Z,2105
2018-07-07T09:15:31.769Z,2070
2018-07-07T09:16:41.907Z,2050
2018-07-07T09:17:52.924Z,2030
2018-07-07T09:19:02.909Z,2015
2018-07-07T09:20:13.061Z,2030
2018-07-07T09:21:23.596Z,2100
2018-07-07T09:22:33.885Z,2160
2018-07-07T09:23:44.106Z,2225
2018-07-07T09:24:54.369Z,2285
2018-07-07T09:26:04.274Z,2310
2018-07-07T09:27:14.445Z,2325
2018-07-07T09:28:24.595Z,2325
2018-07-07T09:29:34.757Z,2375
2018-07-07T09:30:44.905Z,2405
2018-07-07T09:31:55.137Z,2430
2018-07-07T09:33:05.293Z,2410
2018-07-07T09:34:14.937Z,2345
2018-07-07T09:35:25.109Z,2355
2018-07-07T09:36:35.253Z,2370
2018-07-07T09:37:45.455Z,2400
2018-07-07T09:38:56.042Z,2430
2018-07-07T09:40:06.258Z,2450
2018-07-07T09:41:16.477Z,2490
2018-07-07T09:42:26.704Z,2565
2018-07-07T09:43:36.872Z,530
2018-07-07T09:44:47.021Z,2555
2018-07-07T09:45:57.211Z,2505
2018-07-07T09:47:07.155Z,2440
2018-07-07T09:48:17.560Z,2505
2018-07-07T09:49:27.723Z,2560
2018-07-07T09:50:37.634Z,2585
2018-07-07T09:51:47.986Z,2610
2018-07-07T09:52:58.150Z,2565
2018-07-07T09:54:08.389Z,2610
2018-07-07T09:55:18.821Z,2555
2018-07-07T09:56:29.289Z,2540
2018-07-07T09:57:39.515Z,2525
2018-07-07T09:58:49.706Z,2580
2018-07-07T10:00:00.067Z,2615
2018-07-07T10:01:14.249Z,2600
2018-07-07T10:02:24.430Z,2625
2018-07-07T10:03:34.587Z,2670
2018-07-07T10:04:44.789Z,2705
2018-07-07T10:05:55.038Z,865
2018-07-07T10:07:05.247Z,2670
2018-07-07T10:08:15.630Z,2640
2018-07-07T10:09:25.774Z,2610
2018-07-07T10:10:35.716Z,2560
2018-07-07T10:11:45.613Z,2505
2018-07-07T10:12:55.987Z,1895
2018-07-07T10:14:06.158Z,2510
2018-07-07T10:15:16.309Z,2505
2018-07-07T10:16:26.546Z,2500
2018-07-07T10:17:36.757Z,2520
2018-07-07T10:18:46.923Z,2550
2018-07-07T10:19:57.163Z,2505
2018-07-07T10:21:08.300Z,2465
2018-07-07T10:22:18.137Z,2450
2018-07-07T10:23:28.361Z,2445
2018-07-07T10:24:38.581Z,2500
2018-07-07T10:25:48.857Z,2705
2018-07-07T10:26:58.773Z,2915
2018-07-07T10:28:08.933Z,3020
2018-07-07T10:29:19.082Z,3140
2018-07-07T10:30:29.040Z,3135
2018-07-07T10:31:39.517Z,3145
2018-07-07T10:32:49.934Z,3140
2018-07-07T10:34:00.082Z,3190
2018-07-07T10:35:09.726Z,3215
2018-07-07T10:36:19.893Z,3195
2018-07-07T10:37:30.253Z,3200
2018-07-07T10:38:40.702Z,3165
2018-07-07T10:39:50.903Z,3240
2018-07-07T10:41:01.162Z,3285
2018-07-07T10:42:11.401Z,3220
2018-07-07T10:43:21.523Z,3145
2018-07-07T10:44:32.501Z,3025
2018-07-07T10:45:43.335Z,3030
2018-07-07T10:46:53.559Z,3090
2018-07-07T10:48:03.744Z,3205
2018-07-07T10:49:13.964Z,3290
2018-07-07T10:50:24.132Z,3375
2018-07-07T10:51:34.525Z,3290
2018-07-07T10:52:44.908Z,3230
2018-07-07T10:53:55.087Z,3170
2018-07-07T10:55:05.285Z,3160
2018-07-07T10:56:15.465Z,3150
2018-07-07T10:57:25.900Z,3165
2018-07-07T10:58:36.070Z,3190
2018-07-07T10:59:46.243Z,3240
2018-07-07T11:00:57.411Z,3310
2018-07-07T11:02:07.606Z,3345
2018-07-07T11:03:17.805Z,3365
2018-07-07T11:04:28.568Z,3360
2018-07-07T11:05:38.769Z,3375
2018-07-07T11:06:49.016Z,3370
2018-07-07T11:07:59.206Z,3345
2018-07-07T11:09:09.471Z,3325
2018-07-07T11:10:20.658Z,3240
2018-07-07T11:11:30.882Z,3180
2018-07-07T11:12:40.867Z,3125
2018-07-07T11:13:51.033Z,3030
2018-07-07T11:15:01.213Z,3090
2018-07-07T11:16:11.589Z,3195
2018-07-07T11:17:21.895Z,3255
2018-07-07T11:18:32.066Z,3335
2018-07-07T11:19:42.271Z,3380
2018-07-07T11:20:52.170Z,3325
2018-07-07T11:22:02.388Z,3285
2018-07-07T11:23:12.629Z,3300
2018-07-07T11:24:23.002Z,3275
2018-07-07T11:25:33.162Z,3250
2018-07-07T11:26:43.325Z,3255
2018-07-07T11:27:53.479Z,3250
2018-07-07T11:29:03.672Z,3275
2018-07-07T11:30:13.883Z,3270
2018-07-07T11:31:24.196Z,3255
2018-07-07T11:32:34.094Z,3300
2018-07-07T11:33:44.271Z,3270
2018-07-07T11:34:54.445Z,3270
2018-07-07T11:36:04.358Z,3220
2018-07-07T11:37:14.522Z,3155
2018-07-07T11:38:24.688Z,3080
2018-07-07T11:39:34.490Z,3095
2018-07-07T11:40:44.387Z,3160
2018-07-07T11:41:54.311Z,3205
2018-07-07T11:43:04.547Z,3190
2018-07-07T11:44:14.708Z,3230
2018-07-07T11:45:25.091Z,3280
2018-07-07T11:46:35.214Z,3265
2018-07-07T11:47:45.367Z,3245
2018-07-07T11:48:55.785Z,3215
2018-07-07T11:50:06.071Z,3145
2018-07-07T11:51:16.299Z,3090
2018-07-07T11:52:26.495Z,3090
2018-07-07T11:53:37.730Z,3095
2018-07-07T11:54:48.045Z,3095
2018-07-07T11:55:58.198Z,3050
2018-07-07T11:57:08.173Z,3040
2018-07-07T11:58:18.375Z,3045
2018-07-07T11:59:28.573Z,3015
2018-07-07T12:00:38.782Z,3070
2018-07-07T12:01:49.023Z,3120
2018-07-07T12:02:59.207Z,3100
2018-07-07T12:04:09.459Z,3135
2018-07-07T12:05:19.636Z,3095
2018-07-07T12:06:29.824Z,3050
2018-07-07T12:07:40.242Z,2990
2018-07-07T12:08:50.410Z,3045
2018-07-07T12:10:00.611Z,3150
2018-07-07T12:11:11.762Z,3210
2018-07-07T12:12:21.981Z,3295
2018-07-07T12:13:32.365Z,3300
2018-07-07T12:14:42.558Z,3205
2018-07-07T12:15:52.762Z,3100
2018-07-07T12:17:02.960Z,3025
2018-07-07T12:18:13.175Z,3035
2018-07-07T12:19:23.344Z,3065
2018-07-07T12:20:33.546Z,3115
2018-07-07T12:21:43.716Z,3155
2018-07-07T12:22:53.869Z,3140
2018-07-07T12:24:04.197Z,3010
2018-07-07T12:25:14.375Z,2950
2018-07-07T12:26:24.673Z,2910
2018-07-07T12:27:35.820Z,2880
2018-07-07T12:28:45.627Z,2940
2018-07-07T12:29:55.782Z,2975
2018-07-07T12:31:05.954Z,2990
2018-07-07T12:32:16.112Z,3000
2018-07-07T12:33:26.118Z,2960
2018-07-07T12:34:35.980Z,2910
2018-07-07T12:35:46.161Z,2955
2018-07-07T12:36:56.521Z,3040
2018-07-07T12:38:06.751Z,3060
2018-07-07T12:39:17.084Z,3090
2018-07-07T12:40:28.330Z,3105
2018-07-07T12:41:38.275Z,3070
2018-07-07T12:42:48.175Z,2995
2018-07-07T12:43:58.385Z,2960
2018-07-07T12:45:08.541Z,2945
2018-07-07T12:46:18.760Z,2925
2018-07-07T12:47:29.047Z,2875
2018-07-07T12:48:39.236Z,2775
2018-07-07T12:49:50.488Z,2760
2018-07-07T12:51:00.660Z,2770
2018-07-07T12:52:11.254Z,2820
2018-07-07T12:53:21.452Z,2850
2018-07-07T12:54:31.338Z,2860
2018-07-07T12:55:41.518Z,2795
2018-07-07T12:56:51.708Z,2770
2018-07-07T12:58:01.558Z,2720
2018-07-07T12:59:11.732Z,2760
2018-07-07T13:00:22.051Z,2845
2018-07-07T13:01:32.291Z,2885
2018-07-07T13:02:42.477Z,2920
2018-07-07T13:03:52.757Z,2945
2018-07-07T13:05:03.024Z,2940
2018-07-07T13:06:13.180Z,2920
2018-07-07T13:07:23.406Z,2945
2018-07-07T13:08:33.631Z,2970
2018-07-07T13:09:43.823Z,2970
2018-07-07T13:10:54.005Z,2915
2018-07-07T13:12:04.247Z,2860
2018-07-07T13:13:14.422Z,2830
2018-07-07T13:14:24.731Z,2825
2018-07-07T13:15:34.971Z,2795
2018-07-07T13:16:46.111Z,2770
2018-07-07T13:17:56.289Z,2755
2018-07-07T13:19:06.741Z,2750
2018-07-07T13:20:16.902Z,2725
2018-07-07T13:21:27.093Z,2705
2018-07-07T13:22:37.259Z,2695
2018-07-07T13:23:47.850Z,2645
2018-07-07T13:24:58.018Z,2615
2018-07-07T13:26:08.254Z,2685
2018-07-07T13:27:18.448Z,2765
2018-07-07T13:28:28.242Z,2900
2018-07-07T13:29:38.651Z,2920
2018-07-07T13:30:48.849Z,2880
2018-07-07T13:31:58.787Z,2760
2018-07-07T13:33:09.199Z,2630
2018-07-07T13:34:19.524Z,2545
2018-07-07T13:35:29.701Z,2535
2018-07-07T13:36:39.931Z,2540
2018-07-07T13:37:50.136Z,2510
2018-07-07T13:39:00.477Z,2480
2018-07-07T13:40:10.675Z,2505
2018-07-07T13:41:20.860Z,2520
2018-07-07T13:42:32.047Z,2565
2018-07-07T13:43:42.233Z,2650
2018-07-07T13:44:52.393Z,2655
2018-07-07T13:46:02.676Z,2565
2018-07-07T13:47:12.871Z,2420
2018-07-07T13:48:23.136Z,2290
2018-07-07T13:49:33.551Z,2200
2018-07-07T13:50:43.828Z,2230
2018-07-07T13:51:54.009Z,2290
2018-07-07T13:53:04.532Z,2310
2018-07-07T13:54:14.807Z,2295
2018-07-07T13:55:25.079Z,2265
2018-07-07T13:56:35.296Z,2175
2018-07-07T13:57:45.456Z,2065
2018-07-07T13:58:55.269Z,2020
2018-07-07T14:00:05.440Z,2025
2018-07-07T14:01:15.620Z,2065
2018-07-07T14:02:26.143Z,2115
2018-07-07T14:03:37.424Z,2145
2018-07-07T14:04:47.699Z,2185
2018-07-07T14:05:57.885Z,2185
2018-07-07T14:07:08.037Z,2150
2018-07-07T14:08:18.425Z,2115
2018-07-07T14:09:28.696Z,2045
2018-07-07T14:10:38.878Z,2010
2018-07-07T14:11:49.039Z,1995
2018-07-07T14:12:59.317Z,1995
2018-07-07T14:14:09.777Z,1975
2018-07-07T14:15:20.101Z,1970
2018-07-07T14:16:30.265Z,1960
2018-07-07T14:17:40.911Z,1955
2018-07-07T14:18:51.076Z,1965
2018-07-07T14:20:01.258Z,1965
2018-07-07T14:21:11.469Z,1965
2018-07-07T14:22:21.645Z,1965
2018-07-07T14:23:31.658Z,1975
2018-07-07T14:24:41.897Z,1940
2018-07-07T14:25:52.061Z,1975
2018-07-07T14:27:02.332Z,1970
2018-07-07T14:28:12.567Z,2060
2018-07-07T14:29:22.756Z,2115
2018-07-07T14:30:33.070Z,2115
2018-07-07T14:31:43.311Z,2055
2018-07-07T14:32:53.528Z,1995
2018-07-07T14:34:03.795Z,1990
2018-07-07T14:35:13.957Z,1990
2018-07-07T14:36:24.141Z,2015
2018-07-07T14:37:34.061Z,2015
2018-07-07T14:38:44.190Z,1985
2018-07-07T14:39:54.372Z,1965
2018-07-07T14:41:04.551Z,1990
2018-07-07T14:42:14.773Z,1990
2018-07-07T14:43:24.954Z,1920
2018-07-07T14:44:35.134Z,1880
2018-07-07T14:45:45.417Z,1830
2018-07-07T14:46:55.666Z,1775
2018-07-07T14:48:05.831Z,1760
2018-07-07T14:49:16.076Z,1745
2018-07-07T14:50:26.285Z,1700
2018-07-07T14:51:36.231Z,1780
2018-07-07T14:52:46.371Z,1680
2018-07-07T14:53:56.538Z,1615
2018-07-07T14:55:06.748Z,1585
2018-07-07T14:56:16.996Z,1420
2018-07-07T14:57:27.173Z,1500
2018-07-07T14:58:37.582Z,1620
2018-07-07T14:59:47.942Z,1630
2018-07-07T15:00:58.244Z,1570
2018-07-07T15:02:08.036Z,1580
2018-07-07T15:03:18.296Z,1545
2018-07-07T15:04:28.654Z,1555
2018-07-07T15:05:39.787Z,1630
2018-07-07T15:06:50.275Z,1645
2018-07-07T15:08:00.766Z,1615
2018-07-07T15:09:11.014Z,1540
2018-07-07T15:10:20.906Z,1200
2018-07-07T15:11:31.055Z,605
2018-07-07T15:12:42.241Z,350
2018-07-07T15:13:52.384Z,310
2018-07-07T15:15:02.613Z,285
2018-07-07T15:16:12.748Z,265
2018-07-07T15:17:22.931Z,255
2018-07-07T15:18:33.158Z,245
2018-07-07T15:19:43.416Z,235
2018-07-07T15:20:53.322Z,225
2018-07-07T15:22:03.482Z,225
2018-07-07T15:23:13.645Z,220
2018-07-07T15:24:23.820Z,215
2018-07-07T15:25:33.723Z,210
2018-07-07T15:26:43.926Z,205
2018-07-07T15:27:54.082Z,200
2018-07-07T15:29:03.972Z,200
2018-07-07T15:30:13.912Z,200
2018-07-07T15:31:24.066Z,195
2018-07-07T15:32:34.220Z,195
2018-07-07T15:33:44.214Z,195
2018-07-07T15:34:54.409Z,190
2018-07-07T15:36:04.187Z,190
2018-07-07T15:37:14.350Z,190
2018-07-07T15:38:24.164Z,190
2018-07-07T15:39:34.315Z,185
2018-07-07T15:40:44.447Z,190
2018-07-07T15:41:54.220Z,185
2018-07-07T15:43:04.411Z,185
2018-07-07T15:44:14.612Z,180
2018-07-07T15:45:24.849Z,180
2018-07-07T15:46:35.050Z,180
2018-07-07T15:47:44.932Z,180
2018-07-07T15:48:55.448Z,180
2018-07-07T15:50:05.673Z,180
2018-07-07T15:51:15.907Z,185
2018-07-07T15:52:26.121Z,180
2018-07-07T15:53:36.279Z,180
2018-07-07T15:54:46.127Z,175
2018-07-07T15:55:56.015Z,175
2018-07-07T15:57:06.182Z,175
2018-07-07T15:58:16.337Z,170
2018-07-07T15:59:26.232Z,165
2018-07-07T16:00:36.382Z,165
2018-07-07T16:01:46.530Z,160
2018-07-07T16:02:56.959Z,160
2018-07-07T16:04:07.117Z,155
2018-07-07T16:05:16.944Z,155
2018-07-07T16:06:27.108Z,150
2018-07-07T16:07:37.246Z,150
2018-07-07T16:08:47.387Z,150